Lingle, WY

10:58 AM MDT on May 30, 2015 (GMT -0600)
Torrington Municipal | | Change Station
CLOSE
Current Station
Airport
Location: Torrington,
Elevation: 4206 ft
Nearby Weather Stations
Active Advisory: Flood Warning

Elev 4206 ft 42.06 °N, 104.15 °W | Updated 40 minutes ago

Overcast
Overcast
56 °F
Feels Like 56 °F
N
14
Wind Variable Wind from ESE

Today
High -- | Low -- °F
--% Chance of Precip.
Yesterday
High -- | Low -- °F
Precip. -- in
5:25 AM 8:25 PM
Waxing Gibbous, 91% visible
Pressure 30.24 in
Visibility 10.0 miles
Clouds Overcast 1600 ft
Dew Point 49 °F
Humidity 77%
Rainfall 0.00 in
Snow Depth Not available.
UV 3 out of 12
Pollen 7.60 out of 12
Air Quality Not available.
Flu Activity Sporadic
SPECI KTOR 301618Z AUTO 12012KT 10SM OVC016 13/09 A3024 RMK AO2 T01330094

More Conditions Fewer Conditions

Pressure 30.24 in
Visibility 10.0 miles
Clouds Overcast 1600 ft
Dew Point 49 °F
Humidity 77%
Rainfall 0.00 in
Snow Depth Not available.
UV 3 out of 12
Pollen 7.60 out of 12
Air Quality Not available.
Flu Activity Sporadic
SPECI KTOR 301618Z AUTO 12012KT 10SM OVC016 13/09 A3024 RMK AO2 T01330094

More Conditions Fewer Conditions

10-Day Weather Forecast

Almanac

Astronomy

May. 30, 2015 Rise Set
Actual Time
Civil Twilight
Nautical Twilight
Astronomical Twilight
Moon
Length of Visible Light
Length of Day
Tomorrow will be .
, % of the Moon is Illuminated

Today's Extremes

State Highs State Lows

Community

WunderPhotos

Upload Photos

1,825,566 photos uploaded!

WunderBlogs® & News

Nearby

Air Quality

  Air Quality AQ Index Pollutant
Not available.

Snow Depth

Station Depth Elevation

Earthquake Activity

City Distance Mag. Time & Date
Minimum magnitude displayed is 2.5.

Coastal Water Temperatures

Place Temperature

Stations

Nearby Weather Stations

Station Location Temp. Windchill Dew Point Humidity Wind Precip. Elev Updated Type
                   
Flood Warning
Statement as of 9:43 AM MDT on May 30, 2015

* Flood Warning continues for
the Laramie river near Fort Laramie
* the river will remain steady near 8.1 feet through Sunday then slowly
fall to below flood stage next Saturday.


Flood impacts and crest history information is displayed at:
http:///water.Weather.Gov/ahps2/index.Php?Wfo=cys&gage=flaw4

* impact... at 8.0 feet... water reaches above the base of the bridge of
Highway 160 immediately west of The Fort Laramie State Park property
(about 1.5 miles upstream from the gage).
* Flood history... this crest compares to a previous crest of 8.0 feet
on may 6 1971.


Lat... Lon 4212 10468 4225 10468 4223 10451 4216 10446
      4212 10449